createdAt,value
2018-09-12T00:04:34.613Z,3.22
2018-09-12T00:09:27.844Z,3.27
2018-09-12T00:14:21.051Z,3.30
2018-09-12T00:19:14.297Z,3.35
2018-09-12T00:24:07.565Z,3.50
2018-09-12T00:29:00.804Z,3.42
2018-09-12T00:33:54.065Z,3.75
2018-09-12T00:38:47.256Z,3.30
2018-09-12T00:43:40.535Z,3.33
2018-09-12T00:48:33.807Z,3.62
2018-09-12T00:53:27.040Z,3.60
2018-09-12T00:58:20.254Z,3.35
2018-09-12T01:03:13.469Z,3.33
2018-09-12T01:08:06.709Z,3.10
2018-09-12T01:12:59.939Z,3.27
2018-09-12T01:17:53.135Z,3.80
2018-09-12T01:22:46.490Z,3.67
2018-09-12T01:27:39.780Z,3.08
2018-09-12T01:32:33.072Z,3.30
2018-09-12T01:37:26.281Z,2.92
2018-09-12T01:42:19.508Z,3.27
2018-09-12T01:47:12.727Z,3.60
2018-09-12T01:52:05.975Z,3.37
2018-09-12T01:56:59.358Z,3.75
2018-09-12T02:01:52.599Z,3.02
2018-09-12T02:06:45.829Z,3.62
2018-09-12T02:11:39.825Z,3.40
2018-09-12T02:16:33.077Z,3.62
2018-09-12T02:21:26.289Z,3.80
2018-09-12T02:26:19.649Z,3.75
2018-09-12T02:31:12.882Z,3.30
2018-09-12T02:36:11.695Z,3.15
2018-09-12T02:41:05.141Z,3.37
2018-09-12T02:45:58.403Z,3.62
2018-09-12T02:50:52.179Z,3.47
2018-09-12T02:55:45.422Z,3.95
2018-09-12T03:00:38.697Z,3.45
2018-09-12T03:05:31.921Z,3.85
2018-09-12T03:10:25.153Z,3.02
2018-09-12T03:15:18.486Z,3.40
2018-09-12T03:20:11.700Z,4.00
2018-09-12T03:25:06.281Z,3.87
2018-09-12T03:29:59.476Z,4.25
2018-09-12T03:34:53.491Z,3.37
2018-09-12T03:39:46.739Z,3.70
2018-09-12T03:44:39.987Z,3.92
2018-09-12T03:49:33.201Z,3.40
2018-09-12T03:54:26.470Z,3.42
2018-09-12T03:59:19.727Z,3.12
2018-09-12T04:04:12.948Z,3.67
2018-09-12T04:09:08.853Z,3.70
2018-09-12T04:14:02.104Z,4.00
2018-09-12T04:18:55.345Z,3.77
2018-09-12T04:23:48.571Z,3.70
2018-09-12T04:28:41.813Z,3.62
2018-09-12T04:33:35.881Z,4.50
2018-09-12T04:38:29.136Z,3.75
2018-09-12T04:43:22.403Z,4.17
2018-09-12T04:48:15.655Z,3.67
2018-09-12T04:53:08.926Z,3.72
2018-09-12T04:58:03.059Z,3.65
2018-09-12T05:02:56.317Z,4.20
2018-09-12T05:07:49.589Z,4.60
2018-09-12T05:12:42.851Z,3.95
2018-09-12T05:17:36.202Z,5.03
2018-09-12T05:22:29.454Z,4.90
2018-09-12T05:27:23.042Z,5.33
2018-09-12T05:32:16.315Z,4.80
2018-09-12T05:37:09.558Z,5.05
2018-09-12T05:42:02.823Z,5.12
2018-09-12T05:46:56.039Z,5.42
2018-09-12T05:51:49.227Z,4.83
2018-09-12T05:56:42.480Z,5.33
2018-09-12T06:01:35.739Z,5.15
2018-09-12T06:06:29.117Z,5.80
2018-09-12T06:11:22.331Z,5.97
2018-09-12T06:16:15.531Z,5.00
2018-09-12T06:21:08.774Z,5.40
2018-09-12T06:26:02.013Z,5.05
2018-09-12T06:30:55.289Z,5.15
2018-09-12T06:35:48.555Z,5.20
2018-09-12T06:40:41.807Z,5.25
2018-09-12T06:45:35.073Z,5.20
2018-09-12T06:50:29.094Z,4.83
2018-09-12T06:55:22.346Z,4.85
2018-09-12T07:00:15.612Z,4.37
2018-09-12T07:05:08.943Z,4.97
2018-09-12T07:10:02.185Z,4.58
2018-09-12T07:14:55.423Z,5.60
2018-09-12T07:19:48.749Z,4.87
2018-09-12T07:24:42.121Z,4.35
2018-09-12T07:29:35.337Z,4.25
2018-09-12T07:34:28.578Z,5.00
2018-09-12T07:39:22.522Z,4.30
2018-09-12T07:44:15.763Z,4.03
2018-09-12T07:49:09.103Z,4.00
2018-09-12T07:54:02.287Z,4.30
2018-09-12T07:58:55.624Z,3.92
2018-09-12T08:03:49.258Z,4.15
2018-09-12T08:08:42.849Z,3.10
2018-09-12T08:13:36.089Z,2.50
2018-09-12T08:18:29.960Z,2.80
2018-09-12T08:23:23.222Z,2.67
2018-09-12T08:28:16.465Z,2.27
2018-09-12T08:33:09.743Z,2.30
2018-09-12T08:38:02.977Z,2.00
2018-09-12T08:42:56.242Z,2.60
2018-09-12T08:47:49.524Z,3.22
2018-09-12T08:52:42.759Z,2.17
2018-09-12T08:57:36.032Z,2.00
2018-09-12T09:02:29.569Z,2.30
2018-09-12T09:07:22.859Z,1.95
2018-09-12T09:12:16.086Z,2.25
2018-09-12T09:17:09.323Z,2.08
2018-09-12T09:22:03.349Z,2.77
2018-09-12T09:26:56.586Z,2.62
2018-09-12T09:31:49.899Z,2.47
2018-09-12T09:36:43.157Z,2.47
2018-09-12T09:41:36.493Z,2.58
2018-09-12T09:46:29.741Z,2.22
2018-09-12T09:51:22.945Z,2.85
2018-09-12T09:56:16.220Z,3.25
2018-09-12T10:01:15.062Z,3.15
2018-09-12T10:06:13.963Z,3.30
2018-09-12T10:11:07.272Z,3.05
2018-09-12T10:16:00.512Z,2.87
2018-09-12T10:20:53.737Z,2.85
2018-09-12T10:25:47.019Z,2.80
2018-09-12T10:30:40.933Z,2.62
2018-09-12T10:35:34.184Z,3.02
2018-09-12T10:40:27.447Z,3.02
2018-09-12T10:45:20.715Z,3.00
2018-09-12T10:50:13.994Z,3.25
2018-09-12T10:55:07.305Z,3.12
2018-09-12T11:00:00.585Z,2.80
2018-09-12T11:04:53.909Z,2.85
2018-09-12T11:09:47.266Z,2.80
2018-09-12T11:14:40.450Z,2.95
2018-09-12T11:19:33.664Z,3.22
2018-09-12T11:24:26.892Z,3.25
2018-09-12T11:29:20.193Z,3.20
2018-09-12T11:34:13.472Z,2.90
2018-09-12T11:39:09.051Z,3.15
2018-09-12T11:44:02.356Z,3.40
2018-09-12T11:48:55.627Z,3.27
2018-09-12T11:53:49.526Z,3.25
2018-09-12T11:58:42.769Z,3.50
2018-09-12T12:03:36.005Z,3.58
2018-09-12T12:08:29.610Z,3.15
2018-09-12T12:13:22.858Z,3.83
2018-09-12T12:18:16.091Z,3.58
2018-09-12T12:23:09.361Z,3.80
2018-09-12T12:28:02.642Z,3.42
2018-09-12T12:32:55.970Z,3.30
2018-09-12T12:37:49.176Z,3.40
2018-09-12T12:42:42.450Z,3.33
2018-09-12T12:47:35.690Z,3.27
2018-09-12T12:52:28.999Z,3.72
2018-09-12T12:57:22.381Z,3.60
2018-09-12T13:02:15.603Z,3.30
2018-09-12T13:07:08.844Z,4.53
2018-09-12T13:12:02.189Z,2.80
2018-09-12T13:16:55.412Z,3.50
2018-09-12T13:21:48.800Z,3.70
2018-09-12T13:26:41.979Z,3.40
2018-09-12T13:31:35.257Z,3.05
2018-09-12T13:36:28.496Z,3.70
2018-09-12T13:41:21.877Z,3.80
2018-09-12T13:46:15.081Z,3.87
2018-09-12T13:51:08.420Z,3.80
2018-09-12T13:56:01.622Z,3.85
2018-09-12T14:00:54.871Z,3.58
2018-09-12T14:05:48.167Z,3.75
2018-09-12T14:10:41.467Z,4.80
2018-09-12T14:15:34.728Z,4.47
2018-09-12T14:20:27.967Z,5.12
2018-09-12T14:25:21.224Z,5.85
2018-09-12T14:30:14.499Z,5.75
2018-09-12T14:35:07.790Z,5.83
2018-09-12T14:40:01.024Z,6.35
2018-09-12T14:44:54.303Z,8.08
2018-09-12T14:49:47.566Z,9.20
2018-09-12T14:54:40.828Z,9.90
2018-09-12T14:59:34.048Z,9.35
2018-09-12T15:04:27.293Z,8.08
2018-09-12T15:09:20.591Z,7.97
2018-09-12T15:14:13.843Z,8.78
2018-09-12T15:19:07.140Z,9.25
2018-09-12T15:24:00.353Z,8.53
2018-09-12T15:28:53.625Z,9.60
2018-09-12T15:33:46.854Z,10.15
2018-09-12T15:38:40.109Z,10.82
2018-09-12T15:43:33.327Z,11.08
2018-09-12T15:48:26.553Z,12.45
2018-09-12T15:53:19.802Z,14.25
2018-09-12T15:58:13.035Z,16.02
2018-09-12T16:03:06.351Z,18.52
2018-09-12T16:07:59.601Z,17.77
2018-09-12T16:12:52.829Z,15.75
2018-09-12T16:17:46.069Z,16.73
2018-09-12T16:22:39.348Z,16.00
2018-09-12T16:27:32.624Z,15.05
2018-09-12T16:32:25.938Z,17.75
2018-09-12T16:37:19.172Z,15.25
2018-09-12T16:42:12.366Z,19.95
2018-09-12T16:47:05.697Z,21.17
2018-09-12T16:51:58.925Z,20.30
2018-09-12T16:56:52.265Z,20.82
2018-09-12T17:01:45.489Z,21.57
2018-09-12T17:06:38.726Z,23.40
2018-09-12T17:11:31.983Z,22.67
2018-09-12T17:16:25.223Z,21.97
2018-09-12T17:21:18.437Z,18.92
2018-09-12T17:26:12.672Z,19.45
2018-09-12T17:31:05.947Z,17.80
2018-09-12T17:35:59.247Z,15.10
2018-09-12T17:40:53.160Z,12.37
2018-09-12T17:45:46.387Z,9.63
2018-09-12T17:50:39.732Z,7.87
2018-09-12T17:55:33.015Z,7.40
2018-09-12T18:00:26.291Z,7.25
2018-09-12T18:05:19.561Z,5.42
2018-09-12T18:10:12.845Z,4.40
2018-09-12T18:15:06.250Z,4.00
2018-09-12T18:19:59.485Z,4.10
2018-09-12T18:24:52.832Z,4.12
2018-09-12T18:29:46.084Z,3.30
2018-09-12T18:34:39.381Z,2.60
2018-09-12T18:39:32.801Z,2.58
2018-09-12T18:44:25.956Z,2.42
2018-09-12T18:49:19.232Z,2.45
2018-09-12T18:54:12.472Z,2.30
2018-09-12T18:59:05.864Z,1.87
2018-09-12T19:03:59.177Z,1.72
2018-09-12T19:08:52.397Z,1.52
2018-09-12T19:13:45.652Z,1.67
2018-09-12T19:18:38.949Z,1.50
2018-09-12T19:23:32.297Z,1.72
2018-09-12T19:28:25.516Z,1.70
2018-09-12T19:33:18.760Z,1.70
2018-09-12T19:38:12.004Z,1.95
2018-09-12T19:43:05.253Z,2.52
2018-09-12T19:47:58.547Z,2.22
2018-09-12T19:52:51.758Z,5.25
2018-09-12T19:57:45.005Z,2.02
2018-09-12T20:02:38.271Z,2.60
2018-09-12T20:07:31.920Z,2.62
2018-09-12T20:12:25.208Z,3.60
2018-09-12T20:17:19.387Z,3.60
2018-09-12T20:22:12.614Z,3.95
2018-09-12T20:27:06.278Z,5.00
2018-09-12T20:31:59.519Z,5.55
2018-09-12T20:36:52.792Z,4.67
2018-09-12T20:41:46.015Z,5.40
2018-09-12T20:46:39.418Z,4.85
2018-09-12T20:51:32.682Z,5.28
2018-09-12T20:56:25.941Z,5.78
2018-09-12T21:01:19.181Z,6.03
2018-09-12T21:06:12.467Z,6.40
2018-09-12T21:11:05.886Z,7.47
2018-09-12T21:15:59.158Z,7.75
2018-09-12T21:20:52.439Z,7.67
2018-09-12T21:25:45.677Z,8.40
2018-09-12T21:30:38.990Z,7.00
2018-09-12T21:35:32.285Z,5.87
2018-09-12T21:40:25.568Z,6.80
2018-09-12T21:45:18.847Z,7.45
2018-09-12T21:50:12.118Z,7.15
2018-09-12T21:55:05.457Z,8.88
2018-09-12T21:59:58.739Z,9.18
2018-09-12T22:04:52.125Z,9.13
2018-09-12T22:09:45.368Z,9.60
2018-09-12T22:14:38.640Z,9.50
2018-09-12T22:19:31.940Z,9.68
2018-09-12T22:24:25.907Z,9.65
2018-09-12T22:29:19.176Z,9.23
2018-09-12T22:34:12.483Z,9.45
2018-09-12T22:39:09.651Z,9.68
2018-09-12T22:44:03.402Z,9.13
2018-09-12T22:48:56.740Z,8.53
2018-09-12T22:53:49.956Z,8.63
2018-09-12T22:58:43.221Z,7.70
2018-09-12T23:03:36.464Z,8.00
2018-09-12T23:08:29.822Z,7.45
2018-09-12T23:13:23.111Z,7.50
2018-09-12T23:18:16.377Z,8.08
2018-09-12T23:23:09.585Z,8.00
2018-09-12T23:28:02.829Z,8.30
2018-09-12T23:32:56.075Z,8.18
2018-09-12T23:37:49.326Z,8.30
2018-09-12T23:42:42.594Z,8.43
2018-09-12T23:47:35.810Z,9.15
2018-09-12T23:52:29.008Z,8.90
2018-09-12T23:57:22.243Z,9.10
